Terminal Aerodrome Forecast
Issued by NWS

Home | Current Version | Previous Version | Text Only | Print | Product List | Glossary On
Versions: 1 2 3 4 5 6 7 8 9 10 11 12 13 14 15 16
000
FTUS45 KRIW 241700
TAFCPR
TAF
KCPR 241720Z 2418/2518 24011KT P6SM SCT100
     FM242300 VRB11KT P6SM VCSH SCT080 BKN120
      TEMPO 2500/2503 21015G25KT 6SM -TSRA SCT040CB BKN050
     FM250300 21007KT P6SM SCT100
     FM250700 24014KT P6SM SCT100=

USA.gov is the U.S. government's official web portal to all federal, state and local government web resources and services.